BON139 FAGG-FACT
Flight info
| Callsign | BON139 |
|---|---|
| Flight time | N/A |
| Altitude | 24000 |
| Route | APGUP DCT ETBUL UQ49 ESRUK UQ51 GETEN GETEN1B |
| Aircraft | A320/M-SDE3FGHIRWY/LB1 |
Departure
| Time | N/A |
|---|---|
| Airport | George Airport (FAGG) |
Arrival
| Time | 2026-05-05 17:09 |
|---|---|
| Airport | Cape Town International Airport (FACT) |
| Time | Latitude | Longitude | Altitude | Speed | Heading |
|---|---|---|---|---|---|
| 2026-05-05 16:46 | -33.97289 | 19.94082 | 24043 ft | 374 kts | 278° |
| 2026-05-05 16:46 | -33.97211 | 19.90961 | 23818 ft | 370 kts | 277° |
| 2026-05-05 16:46 | -33.97138 | 19.87875 | 23580 ft | 368 kts | 278° |
| 2026-05-05 16:46 | -33.97110 | 19.84804 | 23311 ft | 368 kts | 274° |
| 2026-05-05 16:47 | -33.97401 | 19.81719 | 23038 ft | 373 kts | 266° |
| 2026-05-05 16:47 | -33.98068 | 19.78684 | 22768 ft | 378 kts | 258° |
| 2026-05-05 16:47 | -33.98716 | 19.76719 | 22584 ft | 383 kts | 253° |
| 2026-05-05 16:47 | -33.99932 | 19.73853 | 22322 ft | 384 kts | 250° |
| 2026-05-05 16:48 | -34.01184 | 19.70963 | 22061 ft | 383 kts | 250° |
| 2026-05-05 16:48 | -34.02391 | 19.68169 | 21807 ft | 380 kts | 250° |
| 2026-05-05 16:48 | -34.03609 | 19.65306 | 21544 ft | 377 kts | 252° |
| 2026-05-05 16:48 | -34.04537 | 19.62437 | 21293 ft | 368 kts | 261° |
| 2026-05-05 16:49 | -34.05098 | 19.59459 | 21039 ft | 360 kts | 268° |
| 2026-05-05 16:49 | -34.05295 | 19.56483 | 20789 ft | 353 kts | 276° |
| 2026-05-05 16:49 | -34.05152 | 19.53550 | 20539 ft | 349 kts | 281° |
| 2026-05-05 16:49 | -34.04899 | 19.50645 | 20293 ft | 347 kts | 281° |
| 2026-05-05 16:50 | -34.04654 | 19.47758 | 20050 ft | 346 kts | 281° |
| 2026-05-05 16:50 | -34.04413 | 19.44873 | 19805 ft | 345 kts | 281° |
| 2026-05-05 16:50 | -34.04172 | 19.41994 | 19566 ft | 344 kts | 280° |
| 2026-05-05 16:50 | -34.03936 | 19.39168 | 19253 ft | 336 kts | 281° |
| 2026-05-05 16:51 | -34.03700 | 19.36386 | 18832 ft | 330 kts | 280° |
| 2026-05-05 16:51 | -34.03467 | 19.33653 | 18412 ft | 327 kts | 280° |
| 2026-05-05 16:51 | -34.03237 | 19.30950 | 18138 ft | 319 kts | 280° |
| 2026-05-05 16:51 | -34.03016 | 19.28338 | 17990 ft | 307 kts | 280° |
| 2026-05-05 16:52 | -34.02803 | 19.25829 | 17828 ft | 297 kts | 280° |
| 2026-05-05 16:52 | -34.02592 | 19.23378 | 17532 ft | 291 kts | 280° |
| 2026-05-05 16:52 | -34.02379 | 19.20960 | 17285 ft | 289 kts | 280° |
| 2026-05-05 16:52 | -34.02166 | 19.18558 | 17023 ft | 288 kts | 280° |
| 2026-05-05 16:53 | -34.01954 | 19.16164 | 16757 ft | 287 kts | 280° |
| 2026-05-05 16:53 | -34.01743 | 19.13777 | 16379 ft | 286 kts | 279° |
| 2026-05-05 16:53 | -34.01531 | 19.11383 | 15935 ft | 288 kts | 279° |
| 2026-05-05 16:53 | -34.01319 | 19.08987 | 15476 ft | 288 kts | 279° |
| 2026-05-05 16:54 | -34.01107 | 19.06586 | 15088 ft | 287 kts | 278° |
| 2026-05-05 16:54 | -34.00916 | 19.04425 | 14680 ft | 288 kts | 278° |
| 2026-05-05 16:54 | -34.00703 | 19.02031 | 14287 ft | 289 kts | 278° |
| 2026-05-05 16:54 | -34.00491 | 18.99636 | 14031 ft | 285 kts | 277° |
| 2026-05-05 16:55 | -34.00283 | 18.97280 | 13486 ft | 281 kts | 277° |
| 2026-05-05 16:55 | -34.00076 | 18.94944 | 12837 ft | 280 kts | 277° |
| 2026-05-05 16:55 | -33.99871 | 18.92634 | 12352 ft | 275 kts | 277° |
| 2026-05-05 16:55 | -33.99667 | 18.90346 | 11915 ft | 274 kts | 277° |
| 2026-05-05 16:56 | -33.99460 | 18.88069 | 11480 ft | 272 kts | 277° |
| 2026-05-05 16:56 | -33.99252 | 18.85802 | 11059 ft | 274 kts | 277° |
| 2026-05-05 16:56 | -33.99047 | 18.83544 | 10910 ft | 266 kts | 277° |
| 2026-05-05 16:56 | -33.98853 | 18.81376 | 10831 ft | 255 kts | 277° |
| 2026-05-05 16:57 | -33.98666 | 18.79287 | 10729 ft | 247 kts | 277° |
| 2026-05-05 16:57 | -33.98485 | 18.77266 | 10626 ft | 239 kts | 277° |
| 2026-05-05 16:57 | -33.98181 | 18.75337 | 10410 ft | 234 kts | 293° |
| 2026-05-05 16:57 | -33.97223 | 18.73761 | 10077 ft | 238 kts | 320° |
| 2026-05-05 16:58 | -33.95719 | 18.72906 | 9710 ft | 246 kts | 347° |
| 2026-05-05 16:58 | -33.94000 | 18.73045 | 9355 ft | 255 kts | 13° |
| 2026-05-05 16:58 | -33.92295 | 18.73588 | 9100 ft | 250 kts | 4° |
| 2026-05-05 16:58 | -33.90593 | 18.73602 | 8878 ft | 242 kts | 347° |
| 2026-05-05 16:59 | -33.88981 | 18.73110 | 8619 ft | 238 kts | 340° |
| 2026-05-05 16:59 | -33.87393 | 18.72556 | 8330 ft | 237 kts | 340° |
| 2026-05-05 16:59 | -33.85817 | 18.72001 | 8052 ft | 236 kts | 340° |
| 2026-05-05 16:59 | -33.84241 | 18.71447 | 7765 ft | 235 kts | 340° |
| 2026-05-05 17:00 | -33.82676 | 18.70897 | 7499 ft | 234 kts | 340° |
| 2026-05-05 17:00 | -33.81114 | 18.70346 | 7214 ft | 233 kts | 340° |
| 2026-05-05 17:00 | -33.79566 | 18.69798 | 6967 ft | 231 kts | 340° |
| 2026-05-05 17:00 | -33.78043 | 18.69258 | 6758 ft | 226 kts | 340° |
| 2026-05-05 17:01 | -33.76552 | 18.68733 | 6574 ft | 220 kts | 340° |
| 2026-05-05 17:01 | -33.75095 | 18.68225 | 6423 ft | 217 kts | 340° |
| 2026-05-05 17:01 | -33.73646 | 18.67715 | 6304 ft | 216 kts | 340° |
| 2026-05-05 17:01 | -33.72199 | 18.67206 | 6219 ft | 217 kts | 340° |
| 2026-05-05 17:02 | -33.70752 | 18.66699 | 6163 ft | 217 kts | 340° |
| 2026-05-05 17:02 | -33.69309 | 18.66181 | 6108 ft | 216 kts | 336° |
| 2026-05-05 17:02 | -33.68081 | 18.65224 | 6055 ft | 211 kts | 309° |
| 2026-05-05 17:02 | -33.67388 | 18.63706 | 6016 ft | 208 kts | 282° |
| 2026-05-05 17:03 | -33.67391 | 18.61984 | 5960 ft | 209 kts | 255° |
| 2026-05-05 17:03 | -33.68084 | 18.60457 | 5900 ft | 213 kts | 228° |
| 2026-05-05 17:03 | -33.69174 | 18.59226 | 5851 ft | 215 kts | 225° |
| 2026-05-05 17:03 | -33.70269 | 18.58013 | 5795 ft | 214 kts | 225° |
| 2026-05-05 17:04 | -33.71359 | 18.56802 | 5748 ft | 214 kts | 225° |
| 2026-05-05 17:04 | -33.72448 | 18.55591 | 5699 ft | 213 kts | 225° |
| 2026-05-05 17:04 | -33.73602 | 18.54425 | 5260 ft | 225 kts | 213° |
| 2026-05-05 17:04 | -33.75120 | 18.53773 | 4743 ft | 239 kts | 189° |
| 2026-05-05 17:05 | -33.76800 | 18.53831 | 4367 ft | 244 kts | 174° |
| 2026-05-05 17:05 | -33.78451 | 18.54362 | 4018 ft | 247 kts | 164° |
| 2026-05-05 17:05 | -33.80089 | 18.54969 | 3658 ft | 246 kts | 166° |
| 2026-05-05 17:05 | -33.81738 | 18.55506 | 3303 ft | 243 kts | 167° |
| 2026-05-05 17:06 | -33.83347 | 18.56012 | 2963 ft | 234 kts | 167° |
| 2026-05-05 17:06 | -33.84896 | 18.56500 | 2632 ft | 227 kts | 167° |
| 2026-05-05 17:06 | -33.86395 | 18.56973 | 2309 ft | 218 kts | 167° |
| 2026-05-05 17:06 | -33.87808 | 18.57420 | 2015 ft | 201 kts | 167° |
| 2026-05-05 17:07 | -33.89098 | 18.57828 | 1736 ft | 183 kts | 167° |
| 2026-05-05 17:07 | -33.90260 | 18.58195 | 1470 ft | 168 kts | 167° |
| 2026-05-05 17:07 | -33.91338 | 18.58536 | 1268 ft | 152 kts | 167° |
| 2026-05-05 17:07 | -33.92343 | 18.58852 | 965 ft | 142 kts | 167° |
| 2026-05-05 17:08 | -33.93254 | 18.59142 | 744 ft | 136 kts | 167° |
| 2026-05-05 17:08 | -33.94156 | 18.59421 | 576 ft | 133 kts | 167° |
| 2026-05-05 17:08 | -33.95042 | 18.59707 | 401 ft | 132 kts | 165° |
| 2026-05-05 17:08 | -33.95941 | 18.59988 | 230 ft | 131 kts | 166° |
| 2026-05-05 17:09 | -33.96779 | 18.60250 | 171 ft | 110 kts | 165° |
| 2026-05-05 17:09 | -33.97359 | 18.60436 | 156 ft | 68 kts | 165° |
| 2026-05-05 17:09 | -33.97677 | 18.60537 | 156 ft | 24 kts | 165° |
| 2026-05-05 17:09 | -33.97792 | 18.60535 | 157 ft | 11 kts | 257° |
| 2026-05-05 17:10 | -33.97772 | 18.60435 | 159 ft | 14 kts | 286° |
| 2026-05-05 17:10 | -33.97733 | 18.60277 | 163 ft | 21 kts | 286° |
| 2026-05-05 17:10 | -33.97659 | 18.60167 | 167 ft | 18 kts | 341° |
| 2026-05-05 17:10 | -33.97532 | 18.60105 | 167 ft | 20 kts | 335° |
| 2026-05-05 17:11 | -33.97406 | 18.60053 | 167 ft | 20 kts | 343° |
| 2026-05-05 17:11 | -33.97260 | 18.60006 | 167 ft | 23 kts | 345° |
| 2026-05-05 17:11 | -33.97213 | 18.59969 | 167 ft | 7 kts | 270° |
| 2026-05-05 17:11 | -33.97225 | 18.59917 | 167 ft | 2 kts | 254° |
| 2026-05-05 17:12 | -33.97227 | 18.59906 | 167 ft | 0 kts | 255° |